createdAt,value
2023-03-03T00:01:19.561Z,2.80
2023-03-03T00:03:46.713Z,2.80
2023-03-03T00:06:14.704Z,2.80
2023-03-03T00:08:41.866Z,2.80
2023-03-03T00:11:09.809Z,2.70
2023-03-03T00:13:56.404Z,2.70
2023-03-03T00:16:31.218Z,2.70
2023-03-03T00:18:58.524Z,2.60
2023-03-03T00:21:29.296Z,2.60
2023-03-03T00:24:20.856Z,2.60
2023-03-03T00:26:55.667Z,2.60
2023-03-03T00:29:29.015Z,2.50
2023-03-03T00:32:00.130Z,2.60
2023-03-03T00:34:30.727Z,2.50
2023-03-03T00:36:58.689Z,2.40
2023-03-03T00:39:36.310Z,2.40
2023-03-03T00:42:13.601Z,2.40
2023-03-03T00:44:45.452Z,2.50
2023-03-03T00:47:36.167Z,2.40
2023-03-03T00:50:11.885Z,2.40
2023-03-03T00:52:51.850Z,2.40
2023-03-03T00:55:18.796Z,2.40
2023-03-03T00:57:45.687Z,2.40
2023-03-03T01:00:13.320Z,2.50
2023-03-03T01:02:40.232Z,2.50
2023-03-03T01:05:07.451Z,2.50
2023-03-03T01:07:34.330Z,2.50
2023-03-03T01:10:01.281Z,2.50
2023-03-03T01:12:28.167Z,2.50
2023-03-03T01:14:55.537Z,2.50
2023-03-03T01:17:22.632Z,2.60
2023-03-03T01:19:49.837Z,2.60
2023-03-03T01:22:17.019Z,2.60
2023-03-03T01:24:43.919Z,2.60
2023-03-03T01:27:11.326Z,2.60
2023-03-03T01:29:38.267Z,2.50
2023-03-03T01:32:05.382Z,2.50
2023-03-03T01:34:32.355Z,2.50
2023-03-03T01:37:01.130Z,2.50
2023-03-03T01:39:28.006Z,2.50
2023-03-03T01:41:55.012Z,2.50
2023-03-03T01:44:21.952Z,2.50
2023-03-03T01:46:54.612Z,2.60
2023-03-03T01:49:37.892Z,2.60
2023-03-03T01:52:33.389Z,2.50
2023-03-03T01:55:25.625Z,2.50
2023-03-03T01:58:01.092Z,2.50
2023-03-03T02:00:29.551Z,2.50
2023-03-03T02:02:56.681Z,2.50
2023-03-03T02:05:23.719Z,2.60
2023-03-03T02:07:51.528Z,2.60
2023-03-03T02:10:21.417Z,2.50
2023-03-03T02:12:54.838Z,2.50
2023-03-03T02:15:23.814Z,2.60
2023-03-03T02:17:55.460Z,2.60
2023-03-03T02:20:56.962Z,2.50
2023-03-03T02:23:27.638Z,2.40
2023-03-03T02:25:59.088Z,2.40
2023-03-03T02:28:33.224Z,2.30
2023-03-03T02:31:01.081Z,2.20
2023-03-03T02:33:29.700Z,2.20
2023-03-03T02:35:56.827Z,2.20
2023-03-03T02:38:29.798Z,2.20
2023-03-03T02:41:22.730Z,2.20
2023-03-03T02:43:56.121Z,2.20
2023-03-03T02:46:23.057Z,2.10
2023-03-03T02:48:49.957Z,2.10
2023-03-03T02:51:16.870Z,2.10
2023-03-03T02:53:43.818Z,2.10
2023-03-03T02:56:10.789Z,2.20
2023-03-03T02:58:38.233Z,2.20
2023-03-03T03:01:05.404Z,2.20
2023-03-03T03:03:32.596Z,2.10
2023-03-03T03:05:59.467Z,2.10
2023-03-03T03:08:26.529Z,2.10
2023-03-03T03:10:53.490Z,2.10
2023-03-03T03:13:20.375Z,2.10
2023-03-03T03:15:47.294Z,2.10
2023-03-03T03:18:15.409Z,2.20
2023-03-03T03:20:42.556Z,2.20
2023-03-03T03:23:10.255Z,2.30
2023-03-03T03:25:45.409Z,2.40
2023-03-03T03:28:13.796Z,2.40
2023-03-03T03:30:41.231Z,2.50
2023-03-03T03:33:08.560Z,2.60
2023-03-03T03:35:36.437Z,2.70
2023-03-03T03:38:03.605Z,2.60
2023-03-03T03:40:30.499Z,2.80
2023-03-03T03:42:57.688Z,2.70
2023-03-03T03:45:24.604Z,2.80
2023-03-03T03:47:51.542Z,2.80
2023-03-03T03:50:18.525Z,2.90
2023-03-03T03:52:45.538Z,3.00
2023-03-03T03:55:12.507Z,3.00
2023-03-03T03:57:39.417Z,2.90
2023-03-03T04:00:08.771Z,2.90
2023-03-03T04:02:36.646Z,3.00
2023-03-03T04:05:04.432Z,3.00
2023-03-03T04:07:31.441Z,3.00
2023-03-03T04:09:58.515Z,3.00
2023-03-03T04:12:25.572Z,3.00
2023-03-03T04:14:52.454Z,3.10
2023-03-03T04:17:25.344Z,3.20
2023-03-03T04:19:55.396Z,3.20
2023-03-03T04:22:22.317Z,3.30
2023-03-03T04:24:49.284Z,3.30
2023-03-03T04:27:16.286Z,3.30
2023-03-03T04:29:43.192Z,3.30
2023-03-03T04:32:10.264Z,3.40
2023-03-03T04:34:37.306Z,3.50
2023-03-03T04:37:04.652Z,3.50
2023-03-03T04:39:31.526Z,3.60
2023-03-03T04:41:58.451Z,3.60
2023-03-03T04:44:25.372Z,3.60
2023-03-03T04:46:52.261Z,3.60
2023-03-03T04:49:19.209Z,3.60
2023-03-03T04:51:46.106Z,3.60
2023-03-03T04:54:13.086Z,3.60
2023-03-03T04:56:39.986Z,3.60
2023-03-03T04:59:06.888Z,3.60
2023-03-03T05:01:33.761Z,3.60
2023-03-03T05:04:00.708Z,3.50
2023-03-03T05:06:28.819Z,3.50
2023-03-03T05:08:55.713Z,3.50
2023-03-03T05:11:22.598Z,3.40
2023-03-03T05:13:49.513Z,3.40
2023-03-03T05:16:16.637Z,3.30
2023-03-03T05:18:43.571Z,3.30
2023-03-03T05:21:10.468Z,3.30
2023-03-03T05:23:37.377Z,3.20
2023-03-03T05:26:04.399Z,3.20
2023-03-03T05:28:31.466Z,3.30
2023-03-03T05:30:58.509Z,3.30
2023-03-03T05:33:25.542Z,3.30
2023-03-03T05:35:57.146Z,3.30
2023-03-03T05:38:25.713Z,3.30
2023-03-03T05:40:52.616Z,3.30
2023-03-03T05:43:19.954Z,3.30
2023-03-03T05:45:46.890Z,3.30
2023-03-03T05:48:13.863Z,3.30
2023-03-03T05:50:40.741Z,3.30
2023-03-03T05:53:07.681Z,3.30
2023-03-03T05:55:34.713Z,3.30
2023-03-03T05:58:01.637Z,3.40
2023-03-03T06:00:28.563Z,3.40
2023-03-03T06:02:55.525Z,3.50
2023-03-03T06:05:22.472Z,3.50
2023-03-03T06:07:49.524Z,3.50
2023-03-03T06:10:16.603Z,3.40
2023-03-03T06:12:43.593Z,3.30
2023-03-03T06:15:11.000Z,3.20
2023-03-03T06:17:38.193Z,3.20
2023-03-03T06:20:05.831Z,3.40
2023-03-03T06:22:32.914Z,3.50
2023-03-03T06:24:59.903Z,3.70
2023-03-03T06:27:26.844Z,3.80
2023-03-03T06:29:53.736Z,3.90
2023-03-03T06:32:20.716Z,4.00
2023-03-03T06:34:47.673Z,4.00
2023-03-03T06:37:14.637Z,4.10
2023-03-03T06:39:41.728Z,4.00
2023-03-03T06:42:09.677Z,4.00
2023-03-03T06:44:36.777Z,4.00
2023-03-03T06:47:03.892Z,4.10
2023-03-03T06:49:30.748Z,4.10
2023-03-03T06:52:01.833Z,4.30
2023-03-03T06:54:30.915Z,4.30
2023-03-03T06:57:14.005Z,4.20
2023-03-03T06:59:41.644Z,4.30
2023-03-03T07:02:17.768Z,4.40
2023-03-03T07:04:47.125Z,4.50
2023-03-03T07:07:22.951Z,4.60
2023-03-03T07:09:51.967Z,4.80
2023-03-03T07:12:25.664Z,4.80
2023-03-03T07:15:01.587Z,4.90
2023-03-03T07:17:28.464Z,4.90
2023-03-03T07:19:55.487Z,5.00
2023-03-03T07:22:25.518Z,5.00
2023-03-03T07:24:57.622Z,5.10
2023-03-03T07:27:27.094Z,5.20
2023-03-03T07:30:02.189Z,5.20
2023-03-03T07:32:37.022Z,5.30
2023-03-03T07:35:23.412Z,5.30
2023-03-03T07:37:50.342Z,5.40
2023-03-03T07:40:37.280Z,5.40
2023-03-03T07:43:31.877Z,5.50
2023-03-03T07:46:23.084Z,5.60
2023-03-03T07:48:50.912Z,5.60
2023-03-03T07:51:27.774Z,5.70
2023-03-03T07:54:15.171Z,5.80
2023-03-03T07:56:42.243Z,5.80
2023-03-03T07:59:27.876Z,5.90
2023-03-03T08:01:58.245Z,6.10
2023-03-03T08:04:50.756Z,6.20
2023-03-03T08:07:19.252Z,6.40
2023-03-03T08:09:56.859Z,6.50
2023-03-03T08:12:32.217Z,6.50
2023-03-03T08:15:18.322Z,6.60
2023-03-03T08:17:46.098Z,6.60
2023-03-03T08:20:31.788Z,6.90
2023-03-03T08:22:58.652Z,7.00
2023-03-03T08:25:25.511Z,7.10
2023-03-03T08:27:52.402Z,7.30
2023-03-03T08:30:19.382Z,7.50
2023-03-03T08:32:46.332Z,7.60
2023-03-03T08:35:13.233Z,7.80
2023-03-03T08:37:40.150Z,8.00
2023-03-03T08:40:07.851Z,8.20
2023-03-03T08:42:34.749Z,8.40
2023-03-03T08:45:01.652Z,8.50
2023-03-03T08:47:28.564Z,8.60
2023-03-03T08:49:55.480Z,8.80
2023-03-03T08:52:22.397Z,8.90
2023-03-03T08:54:49.282Z,9.00
2023-03-03T08:57:16.157Z,9.10
2023-03-03T08:59:43.125Z,9.20
2023-03-03T09:02:10.085Z,9.50
2023-03-03T09:04:37.095Z,9.70
2023-03-03T09:07:03.981Z,9.80
2023-03-03T09:09:30.932Z,10.00
2023-03-03T09:12:02.126Z,10.10
2023-03-03T09:14:29.789Z,10.20
2023-03-03T09:16:57.307Z,10.30
2023-03-03T09:19:26.248Z,10.40
2023-03-03T09:21:55.486Z,10.50
2023-03-03T09:24:29.282Z,10.60
2023-03-03T09:26:59.118Z,10.70
2023-03-03T09:29:31.728Z,10.80
2023-03-03T09:32:14.214Z,10.80
2023-03-03T09:34:43.100Z,10.90
2023-03-03T09:37:23.531Z,11.00
2023-03-03T09:39:53.027Z,11.10
2023-03-03T09:42:46.459Z,11.20
2023-03-03T09:45:19.486Z,11.40
2023-03-03T09:48:04.417Z,11.50
2023-03-03T09:51:02.697Z,11.50
2023-03-03T09:53:58.376Z,11.40
2023-03-03T09:56:52.684Z,11.50
2023-03-03T09:59:41.561Z,11.70
2023-03-03T10:02:16.995Z,12.10
2023-03-03T10:05:15.283Z,12.30
2023-03-03T10:07:45.223Z,12.80
2023-03-03T10:10:35.404Z,13.20
2023-03-03T10:13:14.264Z,13.70
2023-03-03T10:15:43.930Z,14.00
2023-03-03T10:18:31.017Z,14.00
2023-03-03T10:21:17.428Z,14.20
2023-03-03T10:23:59.212Z,14.00
2023-03-03T10:26:52.531Z,14.10
2023-03-03T10:29:37.068Z,14.20
2023-03-03T10:32:31.692Z,14.30
2023-03-03T10:35:32.908Z,14.10
2023-03-03T10:38:24.766Z,14.10
2023-03-03T10:40:59.353Z,13.90
2023-03-03T10:43:48.206Z,14.00
2023-03-03T10:46:18.281Z,14.10
2023-03-03T10:49:26.463Z,14.20
2023-03-03T10:52:26.656Z,14.20
2023-03-03T10:55:12.332Z,14.20
2023-03-03T10:57:48.343Z,14.00
2023-03-03T11:00:15.448Z,13.90
2023-03-03T11:03:00.727Z,13.90
2023-03-03T11:05:33.196Z,13.90
2023-03-03T11:08:09.542Z,13.90
2023-03-03T11:10:48.580Z,14.00
2023-03-03T11:13:40.788Z,14.00
2023-03-03T11:16:25.515Z,14.20
2023-03-03T11:19:22.624Z,14.20
2023-03-03T11:22:17.101Z,14.10
2023-03-03T11:24:46.793Z,14.00
2023-03-03T11:27:46.274Z,14.10
2023-03-03T11:30:34.454Z,14.20
2023-03-03T11:33:15.095Z,14.10
2023-03-03T11:36:11.030Z,14.00
2023-03-03T11:39:05.542Z,14.10
2023-03-03T11:41:43.510Z,13.80
2023-03-03T11:44:25.451Z,13.70
2023-03-03T11:47:03.228Z,13.70
2023-03-03T11:49:48.302Z,13.70
2023-03-03T11:52:25.591Z,13.50
2023-03-03T11:55:04.348Z,13.10
2023-03-03T11:57:43.264Z,13.10
2023-03-03T12:00:39.128Z,13.10
2023-03-03T12:03:21.126Z,13.30
2023-03-03T12:05:56.626Z,13.50
2023-03-03T12:08:29.194Z,13.60
2023-03-03T12:11:23.192Z,13.60
2023-03-03T12:14:03.190Z,13.70
2023-03-03T12:16:55.135Z,13.70
2023-03-03T12:19:54.223Z,13.70
2023-03-03T12:22:31.558Z,13.70
2023-03-03T12:25:10.447Z,13.70
2023-03-03T12:28:05.858Z,13.70
2023-03-03T12:31:22.868Z,13.80
2023-03-03T12:34:02.609Z,13.80
2023-03-03T12:36:45.307Z,13.60
2023-03-03T12:39:39.062Z,13.50
2023-03-03T12:42:18.034Z,13.50
2023-03-03T12:45:03.637Z,13.50
2023-03-03T12:47:40.310Z,13.60
2023-03-03T12:50:10.309Z,13.60
2023-03-03T12:52:49.437Z,13.60
2023-03-03T12:55:16.312Z,13.70
2023-03-03T12:57:56.232Z,13.70
2023-03-03T13:00:40.624Z,13.80
2023-03-03T13:03:35.683Z,13.80
2023-03-03T13:06:11.450Z,13.70
2023-03-03T13:08:57.644Z,13.60
2023-03-03T13:11:36.763Z,13.50
2023-03-03T13:14:23.118Z,13.60
2023-03-03T13:16:56.813Z,13.70
2023-03-03T13:19:35.123Z,13.70
2023-03-03T13:22:33.613Z,13.40
2023-03-03T13:25:26.812Z,13.20
2023-03-03T13:28:01.213Z,13.20
2023-03-03T13:30:33.296Z,13.40
2023-03-03T13:33:11.257Z,13.50
2023-03-03T13:35:53.719Z,13.70
2023-03-03T13:38:29.174Z,13.80
2023-03-03T13:41:15.055Z,13.80
2023-03-03T13:43:46.759Z,13.70
2023-03-03T13:46:32.635Z,13.70
2023-03-03T13:49:11.443Z,13.70
2023-03-03T13:51:59.479Z,13.70
2023-03-03T13:54:44.720Z,13.60
2023-03-03T13:57:30.039Z,13.60
2023-03-03T14:00:25.019Z,13.50
2023-03-03T14:03:04.131Z,13.40
2023-03-03T14:05:52.948Z,13.40
2023-03-03T14:08:34.958Z,13.30
2023-03-03T14:11:43.805Z,13.30
2023-03-03T14:14:22.954Z,13.30
2023-03-03T14:17:09.271Z,13.30
2023-03-03T14:19:44.142Z,13.30
2023-03-03T14:22:23.979Z,13.20
2023-03-03T14:25:10.606Z,13.30
2023-03-03T14:27:46.578Z,13.20
2023-03-03T14:30:40.830Z,13.10
2023-03-03T14:33:11.063Z,13.10
2023-03-03T14:35:42.421Z,13.10
2023-03-03T14:38:09.320Z,13.00
2023-03-03T14:40:39.236Z,13.00
2023-03-03T14:43:24.622Z,13.00
2023-03-03T14:45:53.300Z,13.00
2023-03-03T14:48:25.674Z,13.00
2023-03-03T14:51:23.383Z,12.90
2023-03-03T14:53:51.267Z,12.90
2023-03-03T14:56:50.380Z,12.90
2023-03-03T14:59:17.828Z,12.90
2023-03-03T15:01:45.671Z,13.00
2023-03-03T15:04:15.665Z,12.90
2023-03-03T15:06:44.122Z,12.80
2023-03-03T15:09:38.375Z,12.70
2023-03-03T15:12:25.974Z,12.70
2023-03-03T15:15:06.315Z,12.70
2023-03-03T15:17:49.923Z,12.70
2023-03-03T15:20:41.427Z,12.60
2023-03-03T15:23:33.352Z,12.60
2023-03-03T15:26:10.460Z,12.60
2023-03-03T15:28:40.453Z,12.60
2023-03-03T15:31:27.602Z,12.50
2023-03-03T15:34:28.652Z,12.50
2023-03-03T15:37:07.656Z,12.40
2023-03-03T15:39:52.910Z,12.40
2023-03-03T15:42:48.570Z,12.30
2023-03-03T15:45:29.355Z,12.20
2023-03-03T15:48:14.392Z,12.20
2023-03-03T15:50:54.461Z,12.10
2023-03-03T15:53:48.917Z,12.10
2023-03-03T15:56:24.643Z,12.00
2023-03-03T15:58:54.581Z,11.90
2023-03-03T16:01:30.569Z,11.80
2023-03-03T16:04:17.894Z,11.70
2023-03-03T16:06:56.398Z,11.60
2023-03-03T16:09:29.181Z,11.60
2023-03-03T16:12:16.886Z,11.50
2023-03-03T16:15:05.145Z,11.40
2023-03-03T16:18:04.443Z,11.40
2023-03-03T16:20:42.959Z,11.30
2023-03-03T16:23:22.362Z,11.20
2023-03-03T16:26:01.269Z,11.10
2023-03-03T16:28:46.670Z,11.10
2023-03-03T16:31:29.414Z,11.00
2023-03-03T16:34:42.740Z,10.90
2023-03-03T16:37:31.157Z,10.80
2023-03-03T16:40:17.258Z,10.70
2023-03-03T16:42:44.772Z,10.60
2023-03-03T16:45:24.095Z,10.50
2023-03-03T16:48:08.731Z,10.50
2023-03-03T16:51:13.410Z,10.40
2023-03-03T16:54:20.154Z,10.30
2023-03-03T16:57:16.258Z,10.20
2023-03-03T17:00:05.570Z,10.10
2023-03-03T17:03:19.121Z,10.00
2023-03-03T17:05:54.979Z,9.90
2023-03-03T17:08:56.390Z,9.90
2023-03-03T17:11:35.309Z,9.80
2023-03-03T17:14:36.193Z,9.70
2023-03-03T17:17:39.664Z,9.60
2023-03-03T17:20:32.848Z,9.50
2023-03-03T17:23:18.575Z,9.40
2023-03-03T17:26:13.740Z,9.30
2023-03-03T17:28:49.990Z,9.30
2023-03-03T17:31:34.935Z,9.20
2023-03-03T17:34:28.154Z,9.10
2023-03-03T17:37:01.559Z,9.00
2023-03-03T17:40:01.152Z,8.90
2023-03-03T17:42:41.335Z,8.80
2023-03-03T17:45:16.572Z,8.70
2023-03-03T17:47:58.000Z,8.70
2023-03-03T17:50:30.895Z,8.60
2023-03-03T17:53:23.583Z,8.50
2023-03-03T17:55:58.768Z,8.40
2023-03-03T17:58:26.602Z,8.30
2023-03-03T18:01:15.033Z,8.10
2023-03-03T18:04:17.615Z,8.00
2023-03-03T18:07:18.867Z,7.80
2023-03-03T18:10:24.356Z,7.70
2023-03-03T18:13:27.289Z,7.60
2023-03-03T18:16:11.727Z,7.40
2023-03-03T18:19:06.944Z,7.30
2023-03-03T18:21:49.395Z,7.20
2023-03-03T18:24:25.587Z,7.10
2023-03-03T18:26:56.276Z,6.90
2023-03-03T18:29:26.488Z,6.80
2023-03-03T18:31:54.231Z,6.70
2023-03-03T18:34:21.295Z,6.60
2023-03-03T18:36:58.766Z,6.60
2023-03-03T18:39:48.452Z,6.50
2023-03-03T18:42:32.031Z,6.50
2023-03-03T18:45:23.536Z,6.30
2023-03-03T18:48:12.622Z,6.20
2023-03-03T18:50:50.895Z,6.20
2023-03-03T18:53:27.525Z,6.00
2023-03-03T18:56:02.880Z,5.90
2023-03-03T18:58:51.681Z,5.90
2023-03-03T19:01:45.653Z,5.80
2023-03-03T19:04:19.432Z,5.80
2023-03-03T19:06:50.361Z,5.70
2023-03-03T19:09:52.556Z,5.70
2023-03-03T19:12:46.307Z,5.50
2023-03-03T19:15:34.553Z,5.40
2023-03-03T19:18:21.599Z,5.30
2023-03-03T19:21:20.084Z,5.20
2023-03-03T19:23:53.047Z,5.20
2023-03-03T19:26:31.793Z,5.10
2023-03-03T19:29:06.572Z,5.10
2023-03-03T19:31:52.939Z,5.10
2023-03-03T19:35:00.460Z,5.10
2023-03-03T19:37:39.236Z,5.10
2023-03-03T19:40:49.124Z,5.00
2023-03-03T19:43:44.859Z,4.90
2023-03-03T19:46:56.461Z,4.80
2023-03-03T19:49:43.429Z,4.70
2023-03-03T19:52:32.154Z,4.70
2023-03-03T19:55:21.329Z,4.60
2023-03-03T19:58:09.827Z,4.60
2023-03-03T20:00:40.614Z,4.60
2023-03-03T20:03:23.834Z,4.50
2023-03-03T20:05:56.592Z,4.50
2023-03-03T20:08:40.990Z,4.50
2023-03-03T20:11:29.111Z,4.50
2023-03-03T20:14:03.406Z,4.40
2023-03-03T20:16:42.085Z,4.30
2023-03-03T20:19:24.356Z,4.30
2023-03-03T20:22:02.330Z,4.20
2023-03-03T20:25:07.949Z,4.10
2023-03-03T20:27:56.762Z,4.00
2023-03-03T20:30:31.572Z,4.00
2023-03-03T20:33:24.989Z,4.00
2023-03-03T20:36:11.406Z,4.00
2023-03-03T20:38:53.340Z,4.00
2023-03-03T20:41:35.771Z,4.00
2023-03-03T20:44:34.860Z,4.00
2023-03-03T20:47:17.277Z,4.00
2023-03-03T20:49:57.295Z,3.90
2023-03-03T20:52:39.839Z,3.80
2023-03-03T20:55:23.639Z,3.70
2023-03-03T20:58:00.889Z,3.70
2023-03-03T21:00:34.603Z,3.60
2023-03-03T21:03:02.619Z,3.50
2023-03-03T21:05:31.594Z,3.40
2023-03-03T21:08:08.599Z,3.40
2023-03-03T21:10:38.056Z,3.30
2023-03-03T21:13:33.889Z,3.30
2023-03-03T21:16:09.262Z,3.20
2023-03-03T21:18:36.873Z,3.10
2023-03-03T21:21:05.256Z,3.00
2023-03-03T21:23:32.618Z,3.00
2023-03-03T21:25:59.748Z,3.10
2023-03-03T21:28:30.345Z,3.10
2023-03-03T21:31:12.814Z,3.10
2023-03-03T21:33:58.435Z,3.00
2023-03-03T21:36:37.889Z,3.00
2023-03-03T21:39:26.973Z,2.90
2023-03-03T21:42:00.665Z,2.90
2023-03-03T21:44:49.903Z,2.90
2023-03-03T21:47:22.033Z,3.00
2023-03-03T21:49:50.917Z,2.90
2023-03-03T21:52:19.613Z,2.80
2023-03-03T21:54:48.238Z,2.80
2023-03-03T21:57:15.505Z,2.70
2023-03-03T21:59:42.817Z,2.80
2023-03-03T22:02:10.442Z,2.80
2023-03-03T22:04:41.220Z,2.80
2023-03-03T22:07:08.973Z,2.70
2023-03-03T22:09:36.048Z,2.70
2023-03-03T22:12:03.841Z,2.60
2023-03-03T22:14:30.911Z,2.60
2023-03-03T22:16:57.910Z,2.50
2023-03-03T22:19:25.240Z,2.50
2023-03-03T22:21:52.172Z,2.50
2023-03-03T22:24:19.418Z,2.50
2023-03-03T22:26:46.348Z,2.40
2023-03-03T22:29:13.331Z,2.40
2023-03-03T22:31:40.262Z,2.40
2023-03-03T22:34:07.341Z,2.40
2023-03-03T22:36:34.238Z,2.40
2023-03-03T22:39:02.023Z,2.50
2023-03-03T22:41:28.988Z,2.50
2023-03-03T22:43:55.852Z,2.30
2023-03-03T22:46:22.965Z,2.30
2023-03-03T22:48:49.950Z,2.20
2023-03-03T22:51:18.350Z,2.20
2023-03-03T22:53:45.224Z,2.20
2023-03-03T22:56:12.142Z,2.20
2023-03-03T22:58:39.344Z,2.10
2023-03-03T23:01:06.316Z,2.10
2023-03-03T23:03:33.330Z,2.10
2023-03-03T23:06:00.271Z,2.10
2023-03-03T23:08:27.737Z,2.00
2023-03-03T23:10:54.672Z,2.00
2023-03-03T23:13:21.656Z,1.90
2023-03-03T23:15:48.641Z,1.90
2023-03-03T23:18:15.602Z,1.90
2023-03-03T23:20:46.037Z,1.90
2023-03-03T23:23:13.259Z,1.90
2023-03-03T23:25:40.237Z,1.90
2023-03-03T23:28:07.624Z,1.90
2023-03-03T23:30:34.531Z,1.90
2023-03-03T23:33:01.438Z,1.80
2023-03-03T23:35:28.353Z,1.90
2023-03-03T23:37:55.278Z,1.80
2023-03-03T23:40:22.490Z,1.80
2023-03-03T23:42:49.736Z,1.80
2023-03-03T23:45:17.340Z,1.80
2023-03-03T23:47:44.246Z,1.80
2023-03-03T23:50:12.601Z,1.80
2023-03-03T23:52:39.545Z,1.80
2023-03-03T23:55:07.085Z,1.70
2023-03-03T23:57:34.065Z,1.70
